createdAt,value
2023-05-20T00:00:14.893Z,0.00
2023-05-20T00:01:14.890Z,0.00
2023-05-20T00:02:14.874Z,0.00
2023-05-20T00:03:14.972Z,0.00
2023-05-20T00:04:15.142Z,0.00
2023-05-20T00:05:14.850Z,0.00
2023-05-20T00:06:14.855Z,0.00
2023-05-20T00:07:14.816Z,0.00
2023-05-20T00:08:14.863Z,0.00
2023-05-20T00:09:14.788Z,0.00
2023-05-20T00:10:14.802Z,0.00
2023-05-20T00:11:14.784Z,0.00
2023-05-20T00:12:14.755Z,0.00
2023-05-20T00:13:14.754Z,0.00
2023-05-20T00:14:14.782Z,0.00
2023-05-20T00:15:14.733Z,0.00
2023-05-20T00:16:14.749Z,0.00
2023-05-20T00:17:14.731Z,0.00
2023-05-20T00:18:14.693Z,0.00
2023-05-20T00:19:14.765Z,0.00
2023-05-20T00:20:14.661Z,0.00
2023-05-20T00:21:14.644Z,0.00
2023-05-20T00:22:14.678Z,0.00
2023-05-20T00:23:14.645Z,0.00
2023-05-20T00:24:14.624Z,0.00
2023-05-20T00:25:14.666Z,0.00
2023-05-20T00:26:14.589Z,0.00
2023-05-20T00:27:14.584Z,0.00
2023-05-20T00:28:14.583Z,0.00
2023-05-20T00:29:14.570Z,0.00
2023-05-20T00:30:14.783Z,0.00
2023-05-20T00:31:14.538Z,0.00
2023-05-20T00:32:14.592Z,0.00
2023-05-20T00:33:14.596Z,0.00
2023-05-20T00:34:14.500Z,0.00
2023-05-20T00:35:14.524Z,0.00
2023-05-20T00:36:14.535Z,0.00
2023-05-20T00:37:14.481Z,0.00
2023-05-20T00:38:14.466Z,0.00
2023-05-20T00:39:14.456Z,0.00
2023-05-20T00:40:15.581Z,0.00
2023-05-20T00:41:14.478Z,0.00
2023-05-20T00:42:14.448Z,0.00
2023-05-20T00:43:14.402Z,0.00
2023-05-20T00:44:14.423Z,0.00
2023-05-20T00:45:14.428Z,0.00
2023-05-20T00:46:14.459Z,0.00
2023-05-20T00:47:14.350Z,0.00
2023-05-20T00:48:14.350Z,0.00
2023-05-20T00:49:14.331Z,0.00
2023-05-20T00:50:14.346Z,0.00
2023-05-20T00:51:14.340Z,0.00
2023-05-20T00:52:14.286Z,0.00
2023-05-20T00:53:14.293Z,0.00
2023-05-20T00:54:14.296Z,0.00
2023-05-20T00:55:14.268Z,0.00
2023-05-20T00:56:14.261Z,0.00
2023-05-20T00:57:14.265Z,0.00
2023-05-20T00:58:14.250Z,0.00
2023-05-20T00:59:14.251Z,0.00
2023-05-20T01:00:14.252Z,0.00
2023-05-20T01:01:14.250Z,0.00
2023-05-20T01:02:14.353Z,0.00
2023-05-20T01:03:14.271Z,0.00
2023-05-20T01:04:14.215Z,0.00
2023-05-20T01:05:14.187Z,0.00
2023-05-20T01:06:14.229Z,0.00
2023-05-20T01:07:14.195Z,0.00
2023-05-20T01:08:14.148Z,0.00
2023-05-20T01:09:14.119Z,0.00
2023-05-20T01:10:14.105Z,0.00
2023-05-20T01:11:14.085Z,0.00
2023-05-20T01:12:14.061Z,0.00
2023-05-20T01:13:14.065Z,0.00
2023-05-20T01:14:14.024Z,0.00
2023-05-20T01:15:14.048Z,0.00
2023-05-20T01:16:14.067Z,0.00
2023-05-20T01:17:14.325Z,0.00
2023-05-20T01:18:13.996Z,0.00
2023-05-20T01:19:14.017Z,0.00
2023-05-20T01:20:13.984Z,0.00
2023-05-20T01:21:13.998Z,0.00
2023-05-20T01:22:13.939Z,0.00
2023-05-20T01:23:13.962Z,0.00
2023-05-20T01:24:13.909Z,0.00
2023-05-20T01:25:13.941Z,0.00
2023-05-20T01:26:14.093Z,0.00
2023-05-20T01:27:13.915Z,0.00
2023-05-20T01:28:13.889Z,0.00
2023-05-20T01:29:13.883Z,0.00
2023-05-20T01:30:13.856Z,0.00
2023-05-20T01:31:13.848Z,0.00
2023-05-20T01:32:13.845Z,0.00
2023-05-20T01:33:13.822Z,0.00
2023-05-20T01:34:13.818Z,0.00
2023-05-20T01:35:13.835Z,0.00
2023-05-20T01:36:13.797Z,0.00
2023-05-20T01:37:13.777Z,0.00
2023-05-20T01:38:13.791Z,0.00
2023-05-20T01:39:13.753Z,0.00
2023-05-20T01:40:13.749Z,0.00
2023-05-20T01:41:13.762Z,0.00
2023-05-20T01:42:13.717Z,0.00
2023-05-20T01:43:15.584Z,0.00
2023-05-20T01:44:13.694Z,0.00
2023-05-20T01:45:13.692Z,0.00
2023-05-20T01:46:13.812Z,0.00
2023-05-20T01:47:13.695Z,0.00
2023-05-20T01:48:13.642Z,0.00
2023-05-20T01:49:13.631Z,0.00
2023-05-20T01:50:13.651Z,0.00
2023-05-20T01:51:13.611Z,0.00
2023-05-20T01:52:13.651Z,0.00
2023-05-20T01:53:13.618Z,0.00
2023-05-20T01:54:13.632Z,0.00
2023-05-20T01:55:13.606Z,0.00
2023-05-20T01:56:13.561Z,0.00
2023-05-20T01:57:13.557Z,0.00
2023-05-20T01:58:13.536Z,0.00
2023-05-20T01:59:13.564Z,0.00
2023-05-20T02:00:13.541Z,0.00
2023-05-20T02:01:13.540Z,0.00
2023-05-20T02:02:13.514Z,0.00
2023-05-20T02:03:13.536Z,0.00
2023-05-20T02:04:13.503Z,0.00
2023-05-20T02:05:13.465Z,0.00
2023-05-20T02:06:13.441Z,0.00
2023-05-20T02:07:13.428Z,0.00
2023-05-20T02:08:13.432Z,0.00
2023-05-20T02:09:13.421Z,0.00
2023-05-20T02:10:13.406Z,0.00
2023-05-20T02:11:13.404Z,0.00
2023-05-20T02:12:13.358Z,0.00
2023-05-20T02:13:13.363Z,0.00
2023-05-20T02:14:13.363Z,0.00
2023-05-20T02:15:13.372Z,0.00
2023-05-20T02:16:13.397Z,0.00
2023-05-20T02:17:13.296Z,0.00
2023-05-20T02:18:13.310Z,0.00
2023-05-20T02:19:13.439Z,0.00
2023-05-20T02:20:13.283Z,0.00
2023-05-20T02:21:13.329Z,0.00
2023-05-20T02:22:13.243Z,0.00
2023-05-20T02:23:13.236Z,0.00
2023-05-20T02:24:13.239Z,0.00
2023-05-20T02:25:13.218Z,0.00
2023-05-20T02:26:13.240Z,0.00
2023-05-20T02:27:13.264Z,0.00
2023-05-20T02:28:13.188Z,0.00
2023-05-20T02:29:13.169Z,0.00
2023-05-20T02:30:13.179Z,0.00
2023-05-20T02:31:13.205Z,0.00
2023-05-20T02:32:13.141Z,0.00
2023-05-20T02:33:13.145Z,0.00
2023-05-20T02:34:13.170Z,0.00
2023-05-20T02:35:13.117Z,0.00
2023-05-20T02:36:13.076Z,0.00
2023-05-20T02:37:13.124Z,0.00
2023-05-20T02:38:13.086Z,0.00
2023-05-20T02:39:13.036Z,0.00
2023-05-20T02:40:13.102Z,0.00
2023-05-20T02:41:13.023Z,0.00
2023-05-20T02:42:13.031Z,0.00
2023-05-20T02:43:13.022Z,0.00
2023-05-20T02:44:13.002Z,0.00
2023-05-20T02:45:12.971Z,0.00
2023-05-20T02:46:13.019Z,0.00
2023-05-20T02:47:12.948Z,0.00
2023-05-20T02:48:12.976Z,0.00
2023-05-20T02:49:12.937Z,0.00
2023-05-20T02:50:12.955Z,0.00
2023-05-20T02:51:12.904Z,0.00
2023-05-20T02:52:12.883Z,0.00
2023-05-20T02:53:12.894Z,0.00
2023-05-20T02:54:12.934Z,0.00
2023-05-20T02:55:12.899Z,0.00
2023-05-20T02:56:12.875Z,0.00
2023-05-20T02:57:12.843Z,0.00
2023-05-20T02:58:12.836Z,0.00
2023-05-20T02:59:12.825Z,0.00
2023-05-20T03:00:12.874Z,0.00
2023-05-20T03:01:12.839Z,0.00
2023-05-20T03:02:12.775Z,0.00
2023-05-20T03:03:12.774Z,0.00
2023-05-20T03:04:12.790Z,0.00
2023-05-20T03:05:12.774Z,0.00
2023-05-20T03:06:12.766Z,0.00
2023-05-20T03:07:12.709Z,0.00
2023-05-20T03:08:12.719Z,0.00
2023-05-20T03:09:12.736Z,0.00
2023-05-20T03:10:12.701Z,0.00
2023-05-20T03:11:12.684Z,0.00
2023-05-20T03:12:12.666Z,0.00
2023-05-20T03:13:12.674Z,0.00
2023-05-20T03:14:12.663Z,0.00
2023-05-20T03:15:12.640Z,0.00
2023-05-20T03:16:12.651Z,0.00
2023-05-20T03:17:12.619Z,0.00
2023-05-20T03:18:12.592Z,0.00
2023-05-20T03:19:12.614Z,0.00
2023-05-20T03:20:12.808Z,0.00
2023-05-20T03:21:12.597Z,0.00
2023-05-20T03:22:12.531Z,0.00
2023-05-20T03:23:12.532Z,0.00
2023-05-20T03:24:12.521Z,0.00
2023-05-20T03:25:12.543Z,0.00
2023-05-20T03:26:12.524Z,0.00
2023-05-20T03:27:12.510Z,0.00
2023-05-20T03:28:12.463Z,0.00
2023-05-20T03:29:12.470Z,0.00
2023-05-20T03:30:12.513Z,0.00
2023-05-20T03:31:12.453Z,0.00
2023-05-20T03:32:12.450Z,5.62
2023-05-20T03:33:12.428Z,5.62
2023-05-20T03:34:12.422Z,5.62
2023-05-20T03:35:12.408Z,5.62
2023-05-20T03:36:12.381Z,5.62
2023-05-20T03:37:12.389Z,5.62
2023-05-20T03:38:12.360Z,5.62
2023-05-20T03:39:12.360Z,5.62
2023-05-20T03:40:12.352Z,11.25
2023-05-20T03:41:12.346Z,11.25
2023-05-20T03:42:12.347Z,11.25
2023-05-20T03:43:12.300Z,11.25
2023-05-20T03:44:12.276Z,16.88
2023-05-20T03:45:12.274Z,16.88
2023-05-20T03:46:12.291Z,16.88
2023-05-20T03:47:12.290Z,16.88
2023-05-20T03:48:12.238Z,16.88
2023-05-20T03:49:12.237Z,22.50
2023-05-20T03:50:12.216Z,22.50
2023-05-20T03:51:12.232Z,16.88
2023-05-20T03:52:12.197Z,22.50
2023-05-20T03:53:12.230Z,16.88
2023-05-20T03:54:12.208Z,22.50
2023-05-20T03:55:12.166Z,22.50
2023-05-20T03:56:14.239Z,22.50
2023-05-20T03:57:13.420Z,28.12
2023-05-20T03:58:12.446Z,33.75
2023-05-20T03:59:12.148Z,33.75
2023-05-20T04:00:12.242Z,28.12
2023-05-20T04:01:12.092Z,33.75
2023-05-20T04:02:12.137Z,33.75
2023-05-20T04:03:12.171Z,28.12
2023-05-20T04:04:12.164Z,28.12
2023-05-20T04:05:12.086Z,22.50
2023-05-20T04:06:12.072Z,22.50
2023-05-20T04:07:12.028Z,22.50
2023-05-20T04:08:12.036Z,22.50
2023-05-20T04:09:11.995Z,22.50
2023-05-20T04:10:11.980Z,28.12
2023-05-20T04:11:11.974Z,28.12
2023-05-20T04:12:12.020Z,28.12
2023-05-20T04:13:11.970Z,28.12
2023-05-20T04:14:11.939Z,28.12
2023-05-20T04:15:11.931Z,22.50
2023-05-20T04:16:11.927Z,28.12
2023-05-20T04:17:11.898Z,33.75
2023-05-20T04:18:11.978Z,39.38
2023-05-20T04:19:11.963Z,39.38
2023-05-20T04:20:11.867Z,45.00
2023-05-20T04:21:11.873Z,50.62
2023-05-20T04:22:11.840Z,56.25
2023-05-20T04:23:11.837Z,50.62
2023-05-20T04:24:11.824Z,50.62
2023-05-20T04:25:11.848Z,45.00
2023-05-20T04:26:11.794Z,39.38
2023-05-20T04:27:11.805Z,45.00
2023-05-20T04:28:11.782Z,39.38
2023-05-20T04:29:12.764Z,39.38
2023-05-20T04:30:11.752Z,39.38
2023-05-20T04:31:11.794Z,39.38
2023-05-20T04:32:11.775Z,45.00
2023-05-20T04:33:11.713Z,45.00
2023-05-20T04:34:11.731Z,45.00
2023-05-20T04:35:12.182Z,50.62
2023-05-20T04:36:11.730Z,56.25
2023-05-20T04:37:11.656Z,56.25
2023-05-20T04:38:11.678Z,56.25
2023-05-20T04:39:11.636Z,56.25
2023-05-20T04:40:11.629Z,56.25
2023-05-20T04:41:11.652Z,61.88
2023-05-20T04:42:11.636Z,61.88
2023-05-20T04:43:11.608Z,73.12
2023-05-20T04:44:11.592Z,78.75
2023-05-20T04:45:11.574Z,73.12
2023-05-20T04:46:11.617Z,78.75
2023-05-20T04:47:11.591Z,73.12
2023-05-20T04:48:11.554Z,73.12
2023-05-20T04:49:11.528Z,67.50
2023-05-20T04:50:11.555Z,61.88
2023-05-20T04:51:11.498Z,67.50
2023-05-20T04:52:11.497Z,67.50
2023-05-20T04:53:11.499Z,73.12
2023-05-20T04:54:11.493Z,73.12
2023-05-20T04:55:11.465Z,73.12
2023-05-20T04:56:11.435Z,73.12
2023-05-20T04:57:11.428Z,67.50
2023-05-20T04:58:11.468Z,67.50
2023-05-20T04:59:11.421Z,67.50
2023-05-20T05:00:11.433Z,67.50
2023-05-20T05:01:11.426Z,73.12
2023-05-20T05:02:11.388Z,78.75
2023-05-20T05:03:11.417Z,78.75
2023-05-20T05:04:11.454Z,84.38
2023-05-20T05:05:11.340Z,84.38
2023-05-20T05:06:11.360Z,78.75
2023-05-20T05:07:11.327Z,90.00
2023-05-20T05:08:11.313Z,90.00
2023-05-20T05:09:11.371Z,84.38
2023-05-20T05:10:11.328Z,84.38
2023-05-20T05:11:11.285Z,84.38
2023-05-20T05:12:11.302Z,95.62
2023-05-20T05:13:11.262Z,95.62
2023-05-20T05:14:11.245Z,90.00
2023-05-20T05:15:11.267Z,84.38
2023-05-20T05:16:11.269Z,73.12
2023-05-20T05:17:11.222Z,78.75
2023-05-20T05:18:11.296Z,84.38
2023-05-20T05:19:11.246Z,78.75
2023-05-20T05:20:11.230Z,73.12
2023-05-20T05:21:11.161Z,67.50
2023-05-20T05:22:11.169Z,61.88
2023-05-20T05:23:11.166Z,61.88
2023-05-20T05:24:11.126Z,67.50
2023-05-20T05:25:11.152Z,73.12
2023-05-20T05:26:11.148Z,73.12
2023-05-20T05:27:11.111Z,67.50
2023-05-20T05:28:11.072Z,67.50
2023-05-20T05:29:11.843Z,73.12
2023-05-20T05:30:11.073Z,78.75
2023-05-20T05:31:11.089Z,84.38
2023-05-20T05:32:11.092Z,90.00
2023-05-20T05:33:11.055Z,84.38
2023-05-20T05:34:11.006Z,95.62
2023-05-20T05:35:11.001Z,90.00
2023-05-20T05:36:11.012Z,84.38
2023-05-20T05:37:10.970Z,95.62
2023-05-20T05:38:10.997Z,101.25
2023-05-20T05:39:10.940Z,106.88
2023-05-20T05:40:10.950Z,106.88
2023-05-20T05:41:10.931Z,118.12
2023-05-20T05:42:10.930Z,123.75
2023-05-20T05:43:10.892Z,129.38
2023-05-20T05:44:10.920Z,151.88
2023-05-20T05:45:10.917Z,180.00
2023-05-20T05:46:10.869Z,202.50
2023-05-20T05:47:10.893Z,174.38
2023-05-20T05:48:10.936Z,157.50
2023-05-20T05:49:10.831Z,168.75
2023-05-20T05:50:10.851Z,151.88
2023-05-20T05:51:10.802Z,146.25
2023-05-20T05:52:10.831Z,157.50
2023-05-20T05:53:10.790Z,146.25
2023-05-20T05:54:10.795Z,135.00
2023-05-20T05:55:10.799Z,151.88
2023-05-20T05:56:10.788Z,151.88
2023-05-20T05:57:10.764Z,163.12
2023-05-20T05:58:10.735Z,168.75
2023-05-20T05:59:10.704Z,163.12
2023-05-20T06:00:10.720Z,163.12
2023-05-20T06:01:10.740Z,180.00
2023-05-20T06:02:10.868Z,191.25
2023-05-20T06:03:10.753Z,180.00
2023-05-20T06:04:10.746Z,146.25
2023-05-20T06:05:10.638Z,135.00
2023-05-20T06:06:10.645Z,129.38
2023-05-20T06:07:10.660Z,129.38
2023-05-20T06:08:10.643Z,129.38
2023-05-20T06:09:10.621Z,123.75
2023-05-20T06:10:10.709Z,140.62
2023-05-20T06:11:10.577Z,180.00
2023-05-20T06:12:13.287Z,174.38
2023-05-20T06:13:10.546Z,151.88
2023-05-20T06:14:10.545Z,151.88
2023-05-20T06:15:10.543Z,146.25
2023-05-20T06:16:10.557Z,157.50
2023-05-20T06:17:10.535Z,168.75
2023-05-20T06:18:10.597Z,174.38
2023-05-20T06:19:10.502Z,151.88
2023-05-20T06:20:10.484Z,157.50
2023-05-20T06:21:10.457Z,157.50
2023-05-20T06:22:10.470Z,180.00
2023-05-20T06:23:10.469Z,208.12
2023-05-20T06:24:10.419Z,208.12
2023-05-20T06:25:10.436Z,208.12
2023-05-20T06:26:10.423Z,292.50
2023-05-20T06:27:10.381Z,337.50
2023-05-20T06:28:10.380Z,247.50
2023-05-20T06:29:10.356Z,213.75
2023-05-20T06:30:10.393Z,202.50
2023-05-20T06:31:10.385Z,196.88
2023-05-20T06:32:10.327Z,191.25
2023-05-20T06:33:10.324Z,202.50
2023-05-20T06:34:10.314Z,230.62
2023-05-20T06:35:10.309Z,230.62
2023-05-20T06:36:10.329Z,236.25
2023-05-20T06:37:10.273Z,236.25
2023-05-20T06:38:10.274Z,241.88
2023-05-20T06:39:10.237Z,247.50
2023-05-20T06:40:10.264Z,258.75
2023-05-20T06:41:10.235Z,236.25
2023-05-20T06:42:10.209Z,225.00
2023-05-20T06:43:10.203Z,236.25
2023-05-20T06:44:10.231Z,241.88
2023-05-20T06:45:10.168Z,230.62
2023-05-20T06:46:10.226Z,202.50
2023-05-20T06:47:10.147Z,208.12
2023-05-20T06:48:10.159Z,230.62
2023-05-20T06:49:10.122Z,236.25
2023-05-20T06:50:10.145Z,241.88
2023-05-20T06:51:10.122Z,247.50
2023-05-20T06:52:10.159Z,258.75
2023-05-20T06:53:10.112Z,241.88
2023-05-20T06:54:10.109Z,236.25
2023-05-20T06:55:10.110Z,258.75
2023-05-20T06:56:10.065Z,230.62
2023-05-20T06:57:10.072Z,191.25
2023-05-20T06:58:10.052Z,185.62
2023-05-20T06:59:10.020Z,213.75
2023-05-20T07:00:10.042Z,213.75
2023-05-20T07:01:10.073Z,225.00
2023-05-20T07:02:10.056Z,292.50
2023-05-20T07:03:10.007Z,281.25
2023-05-20T07:04:10.030Z,258.75
2023-05-20T07:05:09.964Z,258.75
2023-05-20T07:06:09.992Z,326.25
2023-05-20T07:07:09.970Z,337.50
2023-05-20T07:08:09.897Z,326.25
2023-05-20T07:09:09.906Z,303.75
2023-05-20T07:10:09.877Z,315.00
2023-05-20T07:11:09.881Z,348.75
2023-05-20T07:12:09.924Z,450.00
2023-05-20T07:13:09.862Z,551.25
2023-05-20T07:14:09.842Z,483.75
2023-05-20T07:15:09.844Z,399.38
2023-05-20T07:16:09.843Z,399.38
2023-05-20T07:17:09.843Z,427.50
2023-05-20T07:18:09.817Z,444.38
2023-05-20T07:19:09.833Z,511.88
2023-05-20T07:20:09.782Z,540.00
2023-05-20T07:21:09.757Z,517.50
2023-05-20T07:22:09.805Z,382.50
2023-05-20T07:23:09.735Z,365.62
2023-05-20T07:24:09.734Z,371.25
2023-05-20T07:25:09.721Z,365.62
2023-05-20T07:26:09.715Z,376.88
2023-05-20T07:27:09.717Z,421.88
2023-05-20T07:28:09.705Z,450.00
2023-05-20T07:29:09.685Z,495.00
2023-05-20T07:30:09.657Z,573.75
2023-05-20T07:31:09.678Z,534.38
2023-05-20T07:32:09.699Z,551.25
2023-05-20T07:33:09.658Z,472.50
2023-05-20T07:34:09.628Z,466.88
2023-05-20T07:35:09.611Z,517.50
2023-05-20T07:36:11.316Z,534.38
2023-05-20T07:37:09.562Z,500.62
2023-05-20T07:38:09.580Z,585.00
2023-05-20T07:39:12.517Z,686.25
2023-05-20T07:40:09.565Z,658.12
2023-05-20T07:41:09.543Z,596.25
2023-05-20T07:42:09.510Z,607.50
2023-05-20T07:43:09.548Z,635.62
2023-05-20T07:44:09.497Z,573.75
2023-05-20T07:45:09.497Z,545.62
2023-05-20T07:46:09.566Z,562.50
2023-05-20T07:47:09.460Z,585.00
2023-05-20T07:48:09.501Z,551.25
2023-05-20T07:49:09.444Z,562.50
2023-05-20T07:50:09.460Z,534.38
2023-05-20T07:51:09.437Z,551.25
2023-05-20T07:52:09.416Z,585.00
2023-05-20T07:53:09.401Z,556.88
2023-05-20T07:54:09.406Z,596.25
2023-05-20T07:55:09.385Z,585.00
2023-05-20T07:56:09.381Z,568.12
2023-05-20T07:57:09.356Z,607.50
2023-05-20T07:58:09.370Z,703.12
2023-05-20T07:59:09.347Z,826.88
2023-05-20T08:00:09.365Z,781.88
2023-05-20T08:01:09.365Z,731.25
2023-05-20T08:02:09.348Z,703.12
2023-05-20T08:03:09.488Z,585.00
2023-05-20T08:04:09.295Z,568.12
2023-05-20T08:05:09.252Z,500.62
2023-05-20T08:06:09.282Z,478.12
2023-05-20T08:07:09.265Z,534.38
2023-05-20T08:08:09.250Z,472.50
2023-05-20T08:09:09.218Z,506.25
2023-05-20T08:10:09.229Z,545.62
2023-05-20T08:11:09.214Z,568.12
2023-05-20T08:12:09.169Z,427.50
2023-05-20T08:13:09.175Z,365.62
2023-05-20T08:14:09.168Z,354.38
2023-05-20T08:15:09.145Z,388.12
2023-05-20T08:16:09.149Z,393.75
2023-05-20T08:17:09.197Z,337.50
2023-05-20T08:18:09.156Z,309.38
2023-05-20T08:19:09.140Z,348.75
2023-05-20T08:20:09.099Z,371.25
2023-05-20T08:21:09.062Z,354.38
2023-05-20T08:22:09.076Z,393.75
2023-05-20T08:23:09.060Z,450.00
2023-05-20T08:24:09.059Z,433.12
2023-05-20T08:25:09.014Z,399.38
2023-05-20T08:26:09.003Z,478.12
2023-05-20T08:27:08.992Z,568.12
2023-05-20T08:28:09.042Z,478.12
2023-05-20T08:29:08.982Z,461.25
2023-05-20T08:30:08.959Z,472.50
2023-05-20T08:31:08.995Z,489.38
2023-05-20T08:32:08.954Z,568.12
2023-05-20T08:33:09.084Z,613.12
2023-05-20T08:34:08.971Z,556.88
2023-05-20T08:35:08.933Z,472.50
2023-05-20T08:36:08.886Z,444.38
2023-05-20T08:37:08.897Z,416.25
2023-05-20T08:38:08.879Z,399.38
2023-05-20T08:39:08.859Z,360.00
2023-05-20T08:40:08.942Z,348.75
2023-05-20T08:41:08.847Z,382.50
2023-05-20T08:42:08.856Z,421.88
2023-05-20T08:43:08.837Z,478.12
2023-05-20T08:44:08.795Z,472.50
2023-05-20T08:45:08.819Z,421.88
2023-05-20T08:46:08.953Z,421.88
2023-05-20T08:47:08.807Z,421.88
2023-05-20T08:48:08.788Z,461.25
2023-05-20T08:49:08.751Z,455.62
2023-05-20T08:50:08.777Z,573.75
2023-05-20T08:51:08.757Z,641.25
2023-05-20T08:52:08.737Z,551.25
2023-05-20T08:53:08.733Z,556.88
2023-05-20T08:54:08.800Z,540.00
2023-05-20T08:55:08.684Z,646.88
2023-05-20T08:56:08.688Z,697.50
2023-05-20T08:57:08.688Z,759.38
2023-05-20T08:58:08.664Z,697.50
2023-05-20T08:59:08.657Z,590.62
2023-05-20T09:00:08.614Z,635.62
2023-05-20T09:01:08.643Z,590.62
2023-05-20T09:02:08.685Z,590.62
2023-05-20T09:03:08.662Z,663.75
2023-05-20T09:04:08.607Z,641.25
2023-05-20T09:05:08.621Z,495.00
2023-05-20T09:06:08.546Z,528.75
2023-05-20T09:07:08.569Z,562.50
2023-05-20T09:08:08.553Z,545.62
2023-05-20T09:09:08.570Z,691.88
2023-05-20T09:10:08.494Z,663.75
2023-05-20T09:11:08.526Z,714.38
2023-05-20T09:12:08.496Z,793.12
2023-05-20T09:13:08.520Z,573.75
2023-05-20T09:14:08.476Z,770.62
2023-05-20T09:15:08.551Z,742.50
2023-05-20T09:16:08.554Z,905.62
2023-05-20T09:17:08.536Z,1130.62
2023-05-20T09:18:08.676Z,1119.38
2023-05-20T09:19:08.567Z,1096.88
2023-05-20T09:20:08.396Z,1316.25
2023-05-20T09:21:08.491Z,1445.62
2023-05-20T09:22:08.358Z,2002.50
2023-05-20T09:23:08.345Z,2610.00
2023-05-20T09:24:08.397Z,2154.38
2023-05-20T09:25:08.324Z,3189.38
2023-05-20T09:26:08.323Z,3324.38
2023-05-20T09:27:08.311Z,3330.00
2023-05-20T09:28:08.317Z,2131.88
2023-05-20T09:29:08.430Z,1929.38
2023-05-20T09:30:08.358Z,1625.62
2023-05-20T09:31:08.289Z,2064.38
2023-05-20T09:32:08.279Z,2497.50
2023-05-20T09:33:08.339Z,2160.00
2023-05-20T09:34:08.255Z,1811.25
2023-05-20T09:35:08.246Z,1276.88
2023-05-20T09:36:08.210Z,1417.50
2023-05-20T09:37:08.219Z,1620.00
2023-05-20T09:38:08.183Z,1411.88
2023-05-20T09:39:08.159Z,1473.75
2023-05-20T09:40:08.172Z,1327.50
2023-05-20T09:41:08.234Z,1462.50
2023-05-20T09:42:08.162Z,2025.00
2023-05-20T09:43:08.275Z,4786.88
2023-05-20T09:44:08.105Z,2677.50
2023-05-20T09:45:08.145Z,2103.75
2023-05-20T09:46:08.097Z,2328.75
2023-05-20T09:47:08.762Z,1681.88
2023-05-20T09:48:08.118Z,3240.00
2023-05-20T09:49:08.051Z,1580.62
2023-05-20T09:50:08.042Z,1732.50
2023-05-20T09:51:08.340Z,2655.00
2023-05-20T09:52:08.009Z,1822.50
2023-05-20T09:53:08.016Z,3785.62
2023-05-20T09:54:08.005Z,2705.62
2023-05-20T09:55:08.013Z,2902.50
2023-05-20T09:56:08.008Z,2441.25
2023-05-20T09:57:07.963Z,3048.75
2023-05-20T09:58:07.961Z,2401.88
2023-05-20T09:59:07.945Z,1839.38
2023-05-20T10:00:07.958Z,4691.25
2023-05-20T10:01:07.982Z,4393.12
2023-05-20T10:02:07.962Z,4713.75
2023-05-20T10:03:07.978Z,4708.12
2023-05-20T10:04:07.895Z,2300.62
2023-05-20T10:05:07.944Z,2300.62
2023-05-20T10:06:07.922Z,2165.62
2023-05-20T10:07:07.853Z,2610.00
2023-05-20T10:08:07.849Z,4241.25
2023-05-20T10:09:07.871Z,4134.38
2023-05-20T10:10:07.846Z,4235.62
2023-05-20T10:11:07.807Z,4106.25
2023-05-20T10:12:07.838Z,3740.62
2023-05-20T10:13:07.798Z,3993.75
2023-05-20T10:14:07.798Z,3999.38
2023-05-20T10:15:07.753Z,4010.62
2023-05-20T10:16:07.817Z,3926.25
2023-05-20T10:17:07.741Z,3718.12
2023-05-20T10:18:07.777Z,3616.88
2023-05-20T10:19:07.797Z,2070.00
2023-05-20T10:20:07.732Z,1648.12
2023-05-20T10:21:07.698Z,2317.50
2023-05-20T10:22:07.695Z,2576.25
2023-05-20T10:23:07.688Z,1490.62
2023-05-20T10:24:07.687Z,1546.88
2023-05-20T10:25:07.745Z,1417.50
2023-05-20T10:26:07.660Z,1951.88
2023-05-20T10:27:07.657Z,2154.38
2023-05-20T10:28:07.650Z,3324.38
2023-05-20T10:29:08.125Z,2666.25
2023-05-20T10:30:07.674Z,4556.25
2023-05-20T10:31:07.633Z,3290.62
2023-05-20T10:32:07.643Z,4303.12
2023-05-20T10:33:07.840Z,3858.75
2023-05-20T10:34:07.569Z,3178.12
2023-05-20T10:35:07.608Z,4241.25
2023-05-20T10:36:07.629Z,4117.50
2023-05-20T10:37:07.543Z,1608.75
2023-05-20T10:38:07.530Z,1378.12
2023-05-20T10:39:07.513Z,1231.88
2023-05-20T10:40:07.519Z,1209.38
2023-05-20T10:41:07.557Z,1119.38
2023-05-20T10:42:07.542Z,1080.00
2023-05-20T10:43:07.487Z,990.00
2023-05-20T10:44:07.470Z,916.88
2023-05-20T10:45:07.457Z,826.88
2023-05-20T10:46:10.517Z,815.62
2023-05-20T10:47:24.733Z,855.00
2023-05-20T10:48:08.532Z,911.25
2023-05-20T10:49:07.473Z,916.88
2023-05-20T10:50:07.395Z,832.50
2023-05-20T10:51:07.402Z,826.88
2023-05-20T10:52:07.357Z,838.12
2023-05-20T10:53:13.342Z,855.00
2023-05-20T10:54:08.356Z,877.50
2023-05-20T10:55:07.342Z,950.62
2023-05-20T10:56:07.339Z,1040.62
2023-05-20T10:57:07.314Z,1074.38
2023-05-20T10:58:07.312Z,1063.12
2023-05-20T10:59:07.332Z,1237.50
2023-05-20T11:00:07.323Z,1451.25
2023-05-20T11:01:07.324Z,911.25
2023-05-20T11:02:07.259Z,855.00
2023-05-20T11:03:07.340Z,843.75
2023-05-20T11:04:07.424Z,933.75
2023-05-20T11:05:07.212Z,1147.50
2023-05-20T11:06:07.227Z,2030.62
2023-05-20T11:07:07.228Z,1586.25
2023-05-20T11:08:16.895Z,1192.50
2023-05-20T11:09:08.219Z,1085.62
2023-05-20T11:10:07.183Z,1147.50
2023-05-20T11:11:07.186Z,1164.38
2023-05-20T11:12:07.161Z,1265.62
2023-05-20T11:13:07.190Z,1108.12
2023-05-20T11:14:07.123Z,1175.62
2023-05-20T11:15:07.166Z,2418.75
2023-05-20T11:16:07.222Z,1333.12
2023-05-20T11:17:07.168Z,2334.38
2023-05-20T11:18:07.187Z,1130.62
2023-05-20T11:19:07.119Z,1338.75
2023-05-20T11:20:07.157Z,3211.88
2023-05-20T11:21:07.066Z,3431.25
2023-05-20T11:22:07.050Z,1878.75
2023-05-20T11:23:07.033Z,1366.88
2023-05-20T11:24:07.043Z,1288.12
2023-05-20T11:25:07.004Z,1209.38
2023-05-20T11:26:07.009Z,2221.88
2023-05-20T11:27:06.998Z,1822.50
2023-05-20T11:28:06.987Z,1816.88
2023-05-20T11:29:07.017Z,1901.25
2023-05-20T11:30:06.946Z,1389.38
2023-05-20T11:31:06.981Z,1338.75
2023-05-20T11:32:06.965Z,1305.00
2023-05-20T11:33:06.963Z,2767.50
2023-05-20T11:34:06.921Z,2458.12
2023-05-20T11:35:06.908Z,3656.25
2023-05-20T11:36:16.233Z,1434.38
2023-05-20T11:37:07.964Z,1198.12
2023-05-20T11:38:06.849Z,1158.75
2023-05-20T11:39:06.844Z,1158.75
2023-05-20T11:40:06.844Z,1310.62
2023-05-20T11:41:06.863Z,1209.38
2023-05-20T11:42:06.863Z,1035.00
2023-05-20T11:43:06.806Z,1046.25
2023-05-20T11:44:06.794Z,1068.75
2023-05-20T11:45:06.787Z,1192.50
2023-05-20T11:46:06.816Z,1125.00
2023-05-20T11:47:06.757Z,1237.50
2023-05-20T11:48:06.840Z,1524.38
2023-05-20T11:49:06.747Z,1231.88
2023-05-20T11:50:06.722Z,1231.88
2023-05-20T11:51:06.723Z,1333.12
2023-05-20T11:52:06.724Z,1299.38
2023-05-20T11:53:06.715Z,1074.38
2023-05-20T11:54:06.671Z,883.12
2023-05-20T11:55:06.676Z,922.50
2023-05-20T11:56:06.678Z,956.25
2023-05-20T11:57:07.270Z,911.25
2023-05-20T11:58:06.668Z,855.00
2023-05-20T11:59:06.712Z,838.12
2023-05-20T12:00:06.656Z,849.38
2023-05-20T12:01:21.207Z,894.38
2023-05-20T12:02:07.636Z,849.38
2023-05-20T12:03:06.663Z,776.25
2023-05-20T12:04:06.700Z,798.75
2023-05-20T12:05:06.614Z,781.88
2023-05-20T12:06:06.544Z,776.25
2023-05-20T12:07:06.527Z,781.88
2023-05-20T12:08:06.536Z,720.00
2023-05-20T12:09:06.546Z,680.62
2023-05-20T12:10:06.535Z,624.38
2023-05-20T12:11:06.486Z,579.38
2023-05-20T12:12:06.501Z,596.25
2023-05-20T12:13:06.485Z,635.62
2023-05-20T12:14:06.470Z,725.62
2023-05-20T12:15:06.458Z,781.88
2023-05-20T12:16:06.469Z,742.50
2023-05-20T12:17:06.436Z,821.25
2023-05-20T12:18:06.514Z,911.25
2023-05-20T12:19:06.441Z,826.88
2023-05-20T12:20:06.417Z,810.00
2023-05-20T12:21:06.390Z,973.12
2023-05-20T12:22:06.392Z,1063.12
2023-05-20T12:23:06.368Z,1136.25
2023-05-20T12:24:06.342Z,961.88
2023-05-20T12:25:06.358Z,765.00
2023-05-20T12:26:06.338Z,663.75
2023-05-20T12:27:06.321Z,765.00
2023-05-20T12:28:06.337Z,1006.88
2023-05-20T12:29:06.304Z,967.50
2023-05-20T12:30:06.273Z,871.88
2023-05-20T12:31:06.381Z,939.38
2023-05-20T12:32:06.442Z,1108.12
2023-05-20T12:33:06.321Z,1080.00
2023-05-20T12:34:06.265Z,1035.00
2023-05-20T12:35:06.240Z,1102.50
2023-05-20T12:36:06.231Z,1091.25
2023-05-20T12:37:06.206Z,1192.50
2023-05-20T12:38:06.210Z,1220.62
2023-05-20T12:39:06.189Z,1310.62
2023-05-20T12:40:06.187Z,1327.50
2023-05-20T12:41:06.136Z,1248.75